createdAt,value
2024-01-24T00:07:01.312Z,1.0
2024-01-24T00:17:01.288Z,0.6
2024-01-24T00:22:01.248Z,0.6
2024-01-24T00:27:01.706Z,0.2
2024-01-24T00:37:01.249Z,0.2
2024-01-24T00:52:01.273Z,0.6
2024-01-24T00:57:01.236Z,0.4
2024-01-24T01:02:01.171Z,0.4
2024-01-24T01:12:01.278Z,0.2
2024-01-24T01:22:01.442Z,0.0
2024-01-24T01:27:01.168Z,0.0
2024-01-24T01:42:01.267Z,0.0
2024-01-24T01:57:02.517Z,0.0
2024-01-24T02:02:01.295Z,0.0
2024-01-24T02:07:02.383Z,0.0
2024-01-24T02:22:01.471Z,0.0
2024-01-24T02:47:01.264Z,0.2
2024-01-24T02:52:01.294Z,0.4
2024-01-24T02:57:01.243Z,0.6
2024-01-24T03:12:01.349Z,0.7
2024-01-24T03:17:01.174Z,0.4
2024-01-24T03:22:01.246Z,0.8
2024-01-24T03:27:01.194Z,1.2
2024-01-24T03:33:01.416Z,1.4
2024-01-24T03:38:01.174Z,1.4
2024-01-24T03:43:01.182Z,1.4
2024-01-24T03:48:01.300Z,0.8
2024-01-24T03:53:01.257Z,0.4
2024-01-24T03:58:01.335Z,0.2
2024-01-24T04:03:01.235Z,0.1
2024-01-24T04:08:01.161Z,0.2
2024-01-24T04:18:01.475Z,0.4
2024-01-24T04:28:02.337Z,0.4
2024-01-24T04:33:01.508Z,0.4
2024-01-24T04:38:01.274Z,0.2
2024-01-24T04:48:02.153Z,0.5
2024-01-24T04:53:01.187Z,0.6
2024-01-24T04:58:01.369Z,0.5
2024-01-24T05:08:01.313Z,0.3
2024-01-24T05:13:01.254Z,0.2
2024-01-24T05:28:01.253Z,0.2
2024-01-24T05:43:01.417Z,0.2
2024-01-24T05:53:01.254Z,0.0
2024-01-24T06:08:01.177Z,0.0
2024-01-24T06:48:01.363Z,0.0
2024-01-24T07:03:01.653Z,0.0
2024-01-24T07:13:01.519Z,0.0
2024-01-24T07:18:01.342Z,0.3
2024-01-24T07:23:01.259Z,0.5
2024-01-24T07:38:01.278Z,0.5
2024-01-24T07:43:01.476Z,0.2
2024-01-24T08:18:01.516Z,0.0
2024-01-24T08:23:01.936Z,0.0
2024-01-24T08:38:02.510Z,0.0
2024-01-24T08:43:01.253Z,0.0
2024-01-24T08:53:01.237Z,0.0
2024-01-24T09:08:01.257Z,0.0
2024-01-24T09:23:01.248Z,0.0
2024-01-24T09:38:01.822Z,0.0
2024-01-24T09:53:03.419Z,0.0
2024-01-24T10:08:01.737Z,0.0
2024-01-24T10:38:02.175Z,0.3
2024-01-24T10:43:08.008Z,0.7
2024-01-24T10:58:01.574Z,0.7
2024-01-24T11:03:01.415Z,0.4
2024-01-24T11:08:05.970Z,0.0
2024-01-24T11:13:01.329Z,0.2
2024-01-24T11:18:01.276Z,0.3
2024-01-24T11:23:01.242Z,0.6
2024-01-24T11:28:02.335Z,1.2
2024-01-24T11:33:02.089Z,1.3
2024-01-24T11:43:01.516Z,1.6
2024-01-24T11:48:01.458Z,1.8
2024-01-24T11:53:01.269Z,1.6
2024-01-24T11:58:01.375Z,2.2
2024-01-24T12:03:02.106Z,2.2
2024-01-24T12:08:01.168Z,1.8
2024-01-24T12:13:03.027Z,2.0
2024-01-24T12:18:01.477Z,1.6
2024-01-24T12:23:06.454Z,1.0
2024-01-24T12:28:01.520Z,0.9
2024-01-24T12:33:01.307Z,1.1
2024-01-24T12:38:01.310Z,0.5
2024-01-24T12:43:01.503Z,0.9
2024-01-24T12:48:01.452Z,1.3
2024-01-24T12:58:01.418Z,1.2
2024-01-24T13:03:01.384Z,1.2
2024-01-24T13:08:01.404Z,1.0
2024-01-24T13:13:01.329Z,1.3
2024-01-24T13:23:01.833Z,1.8
2024-01-24T13:28:01.572Z,2.1
2024-01-24T13:33:01.452Z,2.0
2024-01-24T13:38:06.366Z,2.1
2024-01-24T13:43:01.398Z,2.4
2024-01-24T13:48:01.338Z,2.6
2024-01-24T13:53:01.371Z,2.7
2024-01-24T13:58:02.899Z,3.1
2024-01-24T14:03:01.508Z,2.6
2024-01-24T14:08:01.357Z,2.7
2024-01-24T14:13:03.134Z,2.5
2024-01-24T14:18:01.507Z,2.3
2024-01-24T14:23:01.174Z,2.4
2024-01-24T14:28:01.409Z,2.6
2024-01-24T14:33:01.373Z,2.4
2024-01-24T14:38:01.385Z,2.3
2024-01-24T14:43:01.266Z,2.8
2024-01-24T14:49:01.489Z,2.7
2024-01-24T14:54:01.292Z,2.7
2024-01-24T15:04:01.474Z,3.4
2024-01-24T15:09:01.242Z,3.1
2024-01-24T15:14:01.260Z,3.2
2024-01-24T15:19:01.518Z,2.7
2024-01-24T15:34:01.530Z,2.0
2024-01-24T15:39:01.332Z,1.9
2024-01-24T15:44:01.179Z,2.2
2024-01-24T15:49:01.448Z,1.7
2024-01-24T15:54:01.547Z,2.0
2024-01-24T15:59:01.384Z,2.8
2024-01-24T16:04:01.740Z,2.8
2024-01-24T16:09:01.315Z,2.8
2024-01-24T16:14:02.010Z,3.6
2024-01-24T16:19:01.367Z,3.1
2024-01-24T16:24:01.281Z,2.8
2024-01-24T16:29:01.233Z,2.7
2024-01-24T16:34:01.426Z,3.2
2024-01-24T16:39:01.283Z,3.0
2024-01-24T16:44:01.242Z,3.4
2024-01-24T16:49:01.314Z,3.6
2024-01-24T16:59:01.329Z,3.2
2024-01-24T17:04:06.448Z,3.5
2024-01-24T17:09:01.213Z,3.3
2024-01-24T17:14:01.274Z,3.1
2024-01-24T17:19:01.404Z,3.3
2024-01-24T17:24:01.230Z,3.1
2024-01-24T17:34:01.632Z,2.7
2024-01-24T17:39:03.131Z,2.6
2024-01-24T17:44:01.237Z,2.6
2024-01-24T17:49:01.400Z,2.7
2024-01-24T17:54:01.231Z,2.5
2024-01-24T17:59:01.401Z,2.7
2024-01-24T18:04:01.350Z,2.8
2024-01-24T18:09:02.012Z,3.4
2024-01-24T18:14:01.206Z,3.6
2024-01-24T18:19:01.609Z,4.0
2024-01-24T18:24:01.839Z,3.6
2024-01-24T18:29:01.623Z,3.6
2024-01-24T18:34:01.558Z,3.0
2024-01-24T18:44:04.209Z,3.1
2024-01-24T18:49:05.138Z,3.1
2024-01-24T19:00:03.093Z,3.4
2024-01-24T19:05:01.458Z,3.2
2024-01-24T19:10:01.491Z,3.4
2024-01-24T19:15:02.356Z,3.4
2024-01-24T19:20:01.692Z,3.6
2024-01-24T19:25:01.933Z,3.2
2024-01-24T19:30:02.096Z,2.7
2024-01-24T19:35:01.176Z,2.2
2024-01-24T19:40:01.586Z,2.4
2024-01-24T19:45:01.997Z,2.2
2024-01-24T19:50:01.189Z,2.2
2024-01-24T19:55:01.360Z,2.4
2024-01-24T20:00:02.230Z,2.3
2024-01-24T20:05:01.299Z,2.1
2024-01-24T20:10:01.406Z,1.6
2024-01-24T20:15:02.529Z,1.8
2024-01-24T20:20:01.485Z,2.0
2024-01-24T20:25:06.267Z,2.1
2024-01-24T20:30:01.835Z,2.0
2024-01-24T20:35:01.390Z,2.6
2024-01-24T20:40:01.434Z,2.5
2024-01-24T20:45:01.765Z,2.8
2024-01-24T20:50:01.479Z,2.6
2024-01-24T20:55:06.447Z,2.6
2024-01-24T21:00:02.411Z,2.5
2024-01-24T21:05:01.520Z,2.9
2024-01-24T21:15:11.573Z,3.6
2024-01-24T21:20:01.347Z,4.3
2024-01-24T21:30:02.093Z,4.0
2024-01-24T21:35:01.338Z,4.4
2024-01-24T21:40:01.376Z,3.7
2024-01-24T21:45:02.092Z,3.9
2024-01-24T21:50:01.678Z,4.4
2024-01-24T21:55:01.587Z,4.0
2024-01-24T22:00:02.629Z,3.8
2024-01-24T22:05:01.546Z,4.0
2024-01-24T22:10:02.081Z,3.2
2024-01-24T22:15:03.709Z,2.6
2024-01-24T22:20:01.503Z,2.9
2024-01-24T22:25:01.452Z,3.0
2024-01-24T22:30:02.769Z,3.2
2024-01-24T22:35:01.633Z,3.8
2024-01-24T22:40:01.522Z,3.8
2024-01-24T22:45:03.096Z,3.7
2024-01-24T22:50:01.900Z,3.5
2024-01-24T22:55:02.658Z,3.2
2024-01-24T23:00:02.409Z,2.9
2024-01-24T23:05:01.795Z,3.0
2024-01-24T23:15:04.925Z,3.3
2024-01-24T23:20:03.122Z,3.2
2024-01-24T23:25:02.552Z,3.4
2024-01-24T23:30:02.930Z,3.3
2024-01-24T23:35:02.871Z,3.5
2024-01-24T23:40:02.536Z,3.7
2024-01-24T23:45:02.453Z,3.8
2024-01-24T23:50:01.872Z,3.3
2024-01-24T23:55:01.431Z,3.3
